Terminal Aerodrome Forecast
Issued by NWS

Home | Current Version | Previous Version | Text Only | Print | Product List | Glossary On
Versions: 1 2 3 4 5 6 7 8 9 10 11 12 13 14 15 16 17 18 19 20 21 22 23
000
FTUS43 KGRB 300100 AAA
TAFATW
TAF AMD
KATW 300100Z 3001/3024 29012G20KT 2SM +TSRA BKN018CB
     FM300130 27008KT P6SM VCSH SCT018 BKN035
     FM300400 27006KT 6SM -SHRA BR BKN025 OVC035
     FM300600 03012KT 3SM RA BR OVC008
     FM301000 02015G22KT 5SM -SHRA SCT008 OVC012
     FM301500 02014G22KT P6SM -SHRA BKN020
     FM301900 03017G28KT P6SM SCT025 BKN100=

USA.gov is the U.S. government's official web portal to all federal, state and local government web resources and services.